Tainan Airport
RCNN : now visible

Airfield :











YOU CAN JOIN US ON...

 
LOGIN :

Register | Disclaimer

   EN    FR    IT 

 









Legend :    VFR   Marginal VFR   IFR   Intensive IFR   Very Intensive IFR
Visi :
Ceiling :
>= 8 km
>= 3000ft
5 to 8 km
1000 to 3000 ft
1500m to 5 km
500 to 1000 ft
800 to 1500m
200 to 500 ft
< 800m
< 200 ft
Symbols :   Thunderstorms  Fog  Heavy snow  Heavy precipitations  Wind > 20 kt






- Airport Elevation : 63 ft
- IATA code : TNN


RCNN - Tainan

CURRENT METAR :
  • 210530Z 30008KT 9999 FEW012 SCT200 27/17 Q1012 NOSIG RMK A2991

EXPIRED METARs :
  • 210500Z 28008KT 9999 FEW012 SCT200 27/17 Q1013 NOSIG RMK A2992
  • 210430Z 29007KT 9000 FEW012 SCT200 27/17 Q1013 NOSIG RMK A2993
  • 210400Z 28007KT 9000 FEW012 SCT200 27/17 Q1014 NOSIG RMK A2995
  • 210330Z 29006KT 9000 FEW012 SCT200 27/16 Q1014 NOSIG RMK A2996
  • 210300Z 28006KT 8000 FEW012 SCT200 27/16 Q1015 NOSIG RMK A2998
  • 210230Z 27003KT 8000 FEW012 SCT200 26/16 Q1015 NOSIG RMK A3000

TAF TAF RCNN
Valid from the 21 at 06:00 until the 22 at 06:00 UTC


210500Z 2106/2206 33008KT 9999 FEW012 SCT200 TX27/2106Z TN15/2120Z
BECMG 2112/2115 36004KT
BECMG 2120/2123 6000
BECMG 2201/2204 36008KT



MET'MAP, your aeronautical weather chart ! - Copyright ORBIFLY December 2007 - Disclaimer

ORBIFLY MET'MAP TEAM :

Programming & Development : Alexandra Zaïnal
Concept & Development : Baudouin d'Aumeries
Co-Development & Prog : Marc-Olivier Méhu
Technical & hardware support : Manuel Goepfert

Contact : metmap@orbifly.com




SOURCES & CREDITS :

   NOAA       Earth
Advisory